Flight Track Log - Related Links

Times and Time Zones

All times are in EDT time to prevent confusion due to time zone crossing. See the CTL311 flight status page for this flight to view local times or setup timezone preferences in your user account.

Time Position Orientation Groundspeed Altitude Reporting Facility
EDT Latitude Longitude Course Direction KTS MPH feet Rate Location/Type
Fri 08:05:34 PM 30.5069 -81.6703 37° Northeast 119 137 600  Level Jacksonville Center
Fri 08:06:35 PM 30.5297 -81.6506 37° Northeast 133 153 1,600 992 Climbing Jacksonville Center
Fri 08:07:35 PM 30.5675 -81.6525 357° North 129 148 2,600 578 Climbing Jacksonville Center
Fri 08:08:50 PM 30.6069 -81.6494 North 134 154 2,900 756 Climbing Jacksonville Center
Fri 08:09:50 PM 30.6531 -81.6467 North 151 174 4,300 950 Climbing Jacksonville Center
Fri 08:10:50 PM 30.6925 -81.6389 10° North 151 174 4,800 550 Climbing Jacksonville Center
Fri 08:11:50 PM 30.7364 -81.6333 North 151 174 5,400 600 Climbing Jacksonville Center
Fri 08:12:50 PM 30.7822 -81.6303 North 151 174 6,000 550 Climbing Jacksonville Center
Fri 08:13:50 PM 30.8303 -81.6250 North 156 180 6,500 550 Climbing Jacksonville Center
Fri 08:14:50 PM 30.8700 -81.6339 349° North 156 180 7,100 250 Climbing Jacksonville Center
Fri 08:15:50 PM 30.9158 -81.6311 North 156 180 7,000 350 Descending Jacksonville Center
Fri 08:16:50 PM 30.9575 -81.6306 North 161 185 7,800 1,000 Climbing Jacksonville Center
Fri 08:17:50 PM 30.9911 -81.6250 North 161 185 9,000 500 Climbing Jacksonville Center
Fri 08:18:50 PM 31.0453 -81.6194 North 178 205 8,800  Descending Jacksonville Center
Fri 08:19:50 PM 31.0972 -81.6042 14° North 166 191 9,000 100 Climbing Jacksonville Center
Fri 08:20:50 PM 31.1453 -81.5939 10° North 166 191 9,000  Level Jacksonville Center
Fri 08:21:50 PM 31.1889 -81.5811 14° North 171 197 9,000  Level Jacksonville Center
Fri 08:22:50 PM 31.2431 -81.5683 11° North 178 205 9,000  Level Jacksonville Center
Fri 08:23:50 PM 31.2931 -81.5531 15° North 183 211 9,000  Level Jacksonville Center
Fri 08:24:50 PM 31.3408 -81.5378 15° North 183 211 9,000  Level Jacksonville Center
Fri 08:25:50 PM 31.3844 -81.5175 22° Northeast 183 211 9,000  Level Jacksonville Center
Fri 08:26:50 PM 31.4303 -81.5022 16° North 183 211 9,000  Level Jacksonville Center
Fri 08:27:50 PM 31.4864 -81.4819 17° North 183 211 9,000 50 Level Jacksonville Center
Fri 08:28:50 PM 31.5342 -81.4642 18° North 183 211 9,100 50 Climbing Jacksonville Center
Fri 08:29:50 PM 31.5819 -81.4439 20° North 183 211 9,100  Level Jacksonville Center
Fri 08:30:50 PM 31.6278 -81.4286 16° North 183 211 9,100  Level Jacksonville Center
Fri 08:31:50 PM 31.6817 -81.4058 20° North 183 211 9,100  Level Jacksonville Center
Fri 08:32:50 PM 31.7317 -81.3856 19° North 183 211 9,100  Level Jacksonville Center
Fri 08:33:50 PM 31.7772 -81.3628 23° Northeast 183 211 9,100  Level Jacksonville Center
Fri 08:35:00 PM 31.8211 -81.3137 44° Northeast  Level FlightAware Approximate
Fri 08:42:00 PM 32.1711 -81.1833 North  Level FlightAware Approximate
Fri 08:43:00 PM 32.2230 -81.1833 360° North  Level FlightAware Approximate
Fri 08:44:00 PM 32.2749 -81.1833 360° North  Level FlightAware Approximate
Fri 08:45:00 PM 32.3268 -81.1833 360° North  Level FlightAware Approximate
Fri 08:46:00 PM 32.3787 -81.1833 360° North  Level FlightAware Approximate
Fri 08:46:50 PM 32.4172 -81.2781 359° North 177 204 9,100  Level Jacksonville Center
Fri 08:47:00 PM 32.4306 -81.1833 360° North  Level FlightAware Approximate
Fri 08:47:50 PM 32.4631 -81.2750 North 177 204 9,000  Level Jacksonville Center
Fri 08:48:00 PM 32.4825 -81.1833 360° North  Level FlightAware Approximate
Fri 08:48:50 PM 32.5131 -81.2739 North 182 209 9,000  Level Jacksonville Center
Fri 08:49:00 PM 32.5344 -81.1833 360° North  Level FlightAware Approximate
Fri 08:49:50 PM 32.5675 -81.2756 359° North 177 204 9,000  Level Jacksonville Center
Fri 08:50:00 PM 32.5863 -81.1833 360° North  Level FlightAware Approximate
Fri 08:50:50 PM 32.6175 -81.2747 North 177 204 9,000  Level Jacksonville Center
Fri 08:51:00 PM 32.6382 -81.1835 359° North  Level FlightAware Approximate
Fri 08:51:50 PM 32.6697 -81.2736 North 177 204 9,000  Level Jacksonville Center
Fri 08:52:50 PM 32.7197 -81.2678 North 186 214 9,100 50 Climbing Jacksonville Center
Fri 08:53:50 PM 32.7742 -81.2694 359° North 181 208 9,100  Level Jacksonville Center
Fri 08:54:50 PM 32.8219 -81.2661 North 176 203 9,100  Level Jacksonville Center
Fri 08:55:50 PM 32.8742 -81.2675 359° North 176 203 9,100  Level Jacksonville Center
Fri 08:56:50 PM 32.9286 -81.2667 North 176 203 9,100 -50 Level Jacksonville Center
Fri 08:57:50 PM 32.9786 -81.2656 North 176 203 9,000 -100 Descending Jacksonville Center
Fri 08:58:50 PM 33.0308 -81.2672 358° North 176 203 8,900 -50 Descending Jacksonville Center
Fri 08:59:50 PM 33.0831 -81.2686 359° North 181 208 8,900 50 Level Jacksonville Center
Fri 09:00:50 PM 33.1353 -81.2678 North 181 208 9,000 50 Climbing Jacksonville Center
Fri 09:01:50 PM 33.1914 -81.2642 North 181 208 9,000  Level Jacksonville Center
Fri 09:02:50 PM 33.2394 -81.2633 North 181 208 9,000  Level Jacksonville Center
Fri 09:03:50 PM 33.2936 -81.2625 North 181 208 9,000  Level Jacksonville Center
Fri 09:04:50 PM 33.3481 -81.2639 359° North 181 208 9,000  Level Jacksonville Center
Fri 09:05:50 PM 33.4003 -81.2628 North 181 208 9,000  Level Jacksonville Center
Fri 09:06:50 PM 33.4522 -81.2644 358° North 181 208 9,000  Level Jacksonville Center
Fri 09:07:50 PM 33.5067 -81.2611 North 181 208 9,000  Level Jacksonville Center
Fri 09:08:50 PM 33.5586 -81.2600 North 181 208 9,000 -135 Level Jacksonville Center
Fri 09:10:00 PM 33.6186 -81.2583 North  Level FlightAware Approximate
Fri 09:17:00 PM 33.9782 -81.2482 North  Level FlightAware Approximate
Fri 09:18:00 PM 34.0296 -81.2467 North  Level FlightAware Approximate
Fri 09:19:00 PM 34.0810 -81.2453 North  Level FlightAware Approximate
Fri 09:20:00 PM 34.1330 -81.2438 North  Level FlightAware Approximate
Fri 09:21:00 PM 34.1850 -81.2423 North  Level FlightAware Approximate
Fri 09:22:00 PM 34.2370 -81.2408 North  Level FlightAware Approximate
Fri 09:22:37 PM 34.3053 -81.2550 North 182 209 7,000  Level Atlanta Center
Fri 09:23:00 PM 34.2890 -81.2394 North  Level FlightAware Approximate
Fri 09:23:25 PM 34.3450 -81.2536 North 181 208 7,000  Level Atlanta Center
Fri 09:24:00 PM 34.3410 -81.2379 North  Level FlightAware Approximate
Fri 09:24:26 PM 34.3950 -81.2494 North 183 211 7,000  Level Atlanta Center
Fri 09:25:00 PM 34.3929 -81.2364 North  Level FlightAware Approximate
Fri 09:25:27 PM 34.4492 -81.2478 North 184 212 7,000  Level Atlanta Center
Fri 09:26:00 PM 34.4449 -81.2349 North  Level FlightAware Approximate
Fri 09:26:28 PM 34.4992 -81.2461 North 182 209 7,000  Level Atlanta Center
Fri 09:27:00 PM 34.4969 -81.2334 North  Level FlightAware Approximate
Fri 09:27:29 PM 34.5494 -81.2494 357° North 181 208 7,000  Level Atlanta Center
Fri 09:28:29 PM 34.6014 -81.2453 North 182 209 7,000  Level Atlanta Center
Fri 09:29:30 PM 34.6536 -81.2433 North 184 212 7,000  Level Atlanta Center
Fri 09:30:31 PM 34.7039 -81.2469 357° North 185 213 7,000  Level Atlanta Center
Fri 09:31:32 PM 34.7600 -81.2450 North 184 212 7,000  Level Atlanta Center
Fri 09:32:32 PM 34.8103 -81.2458 359° North 182 209 7,000  Level Atlanta Center
Fri 09:33:39 PM 34.8664 -81.2414 North 182 209 7,000  Level Atlanta Center
Fri 09:34:34 PM 34.9122 -81.2400 North 183 211 7,000  Level Atlanta Center
Fri 09:35:47 PM 34.9750 -81.2403 360° North 185 213 7,000  Level Atlanta Center
Fri 09:36:41 PM 35.0231 -81.2439 356° North 185 213 7,000  Level Atlanta Center
Fri 09:37:48 PM 35.0769 -81.2369 North 184 212 7,000  Level Atlanta Center
Fri 09:38:42 PM 35.1231 -81.2378 359° North 182 209 7,000  Level Atlanta Center
Fri 09:39:43 PM 35.1753 -81.2386 359° North 179 206 7,000  Level Atlanta Center
Fri 09:40:44 PM 35.2253 -81.2394 359° North 180 207 7,000  Level Atlanta Center
Fri 09:41:44 PM 35.2753 -81.2353 North 182 209 7,000  Level Atlanta Center
Fri 09:42:45 PM 35.3253 -81.2361 359° North 182 209 7,000  Level Atlanta Center
Fri 09:43:45 PM 35.3753 -81.2319 North 184 212 7,000  Level Atlanta Center
Fri 09:44:19 PM 35.4025 -81.2333 358° North 197 227 7,000  Level Atlanta Center
Fri 09:45:19 PM 35.4503 -81.2319 North 192 221 7,000  Level Atlanta Center
Fri 09:46:19 PM 35.5047 -81.2325 360° North 184 212 7,000  Level Atlanta Center
Fri 09:47:19 PM 35.5547 -81.2308 North 179 206 7,000  Level Atlanta Center
Fri 09:48:19 PM 35.6131 -81.2264 North 179 206 7,000  Level Atlanta Center
Fri 09:49:19 PM 35.6653 -81.2297 357° North 185 213 7,000  Level Atlanta Center
Fri 09:50:19 PM 35.7153 -81.2278 North 185 213 7,000  Level Atlanta Center
Fri 09:51:19 PM 35.7633 -81.2289 359° North 185 213 7,000  Level Atlanta Center
Fri 09:52:19 PM 35.8153 -81.2269 North 180 207 7,000  Level Atlanta Center
Fri 09:53:19 PM 35.8656 -81.2278 359° North 175 201 7,000  Level Atlanta Center
Fri 09:54:19 PM 35.9175 -81.2261 North 180 207 7,000  Level Atlanta Center
Fri 09:55:19 PM 35.9678 -81.2267 359° North 180 207 7,000  Level Atlanta Center
Fri 09:56:19 PM 36.0175 -81.2225 North 175 201 7,000  Level Atlanta Center
Fri 09:57:19 PM 36.0697 -81.2233 359° North 180 207 7,000 50 Level Atlanta Center
Fri 09:58:19 PM 36.1261 -81.2239 360° North 180 207 7,100 50 Climbing Atlanta Center
Fri 09:59:19 PM 36.1761 -81.2222 North 180 207 7,100  Level Atlanta Center
Fri 10:00:19 PM 36.2261 -81.2203 North 180 207 7,100  Level Atlanta Center
Fri 10:01:19 PM 36.2783 -81.2211 359° North 180 207 7,100  Level Atlanta Center
Fri 10:02:19 PM 36.3303 -81.2194 North 180 207 7,100  Level Atlanta Center
Fri 10:03:19 PM 36.3825 -81.2150 North 180 207 7,100 -50 Level Atlanta Center
Fri 10:04:19 PM 36.4325 -81.2183 357° North 180 207 7,000 -50 Descending Atlanta Center
Fri 10:05:19 PM 36.4847 -81.2139 North 180 207 7,000 50 Level Atlanta Center
Fri 10:06:19 PM 36.5347 -81.2147 359° North 180 207 7,100 50 Climbing Atlanta Center
Fri 10:07:19 PM 36.5783 -81.2131 North 180 207 7,100 -100 Level Atlanta Center
Fri 10:08:19 PM 36.6306 -81.2139 359° North 180 207 6,900 -50 Descending Atlanta Center
Fri 10:09:19 PM 36.6806 -81.2147 359° North 180 207 7,000  Climbing Atlanta Center
Fri 10:10:19 PM 36.7306 -81.2131 North 180 207 6,900 -50 Descending Atlanta Center
Fri 10:11:19 PM 36.7847 -81.2111 North 180 207 6,900  Level Atlanta Center
Fri 10:12:19 PM 36.8350 -81.2144 357° North 175 201 6,900  Level Atlanta Center
Fri 10:13:19 PM 36.8869 -81.2125 North 175 201 6,900  Level Atlanta Center
Fri 10:14:19 PM 36.9369 -81.2133 359° North 175 201 6,900  Level Atlanta Center
Fri 10:16:13 PM 37.0350 -81.2108 North 181 208 6,900  Level Indianapolis Center
Fri 10:17:14 PM 37.0842 -81.2100 North 181 208 6,900  Level Indianapolis Center

Login

Don't have an account? Register now (free) for customized features, flight alerts, and more!